RANGR61 KLSV-KNUC
Flight info
| Callsign | RANGR61 |
|---|---|
| Flight time | 0h 58m |
| Altitude | 20000 |
| Route | CRESO HEC NAPHA GOATZ |
| Aircraft | C130/M-SDE2E3FGRY/H |
Departure
| Time | 2026-04-15 23:45 |
|---|---|
| Airport | Nellis Air Force Base (KLSV) |
Arrival
| Time | 2026-04-16 00:43 |
|---|---|
| Airport | San Clemente Island Naval Auxiliary Landing Field (KNUC) |
| Time | Latitude | Longitude | Altitude | Speed | Heading |
|---|---|---|---|---|---|
| 2026-04-15 23:17 | 36.23420 | -115.04189 | 1894 ft | 0 kts | 40° |
| 2026-04-15 23:38 | 36.23421 | -115.04189 | 1871 ft | 0 kts | 40° |
| 2026-04-15 23:38 | 36.23435 | -115.04168 | 1877 ft | 1 kts | 63° |
| 2026-04-15 23:39 | 36.23435 | -115.04164 | 1877 ft | 1 kts | 78° |
| 2026-04-15 23:39 | 36.23433 | -115.04154 | 1877 ft | 1 kts | 107° |
| 2026-04-15 23:39 | 36.23427 | -115.04137 | 1878 ft | 3 kts | 111° |
| 2026-04-15 23:40 | 36.23429 | -115.04105 | 1879 ft | 5 kts | 66° |
| 2026-04-15 23:40 | 36.23462 | -115.04064 | 1879 ft | 9 kts | 41° |
| 2026-04-15 23:40 | 36.23515 | -115.04006 | 1879 ft | 12 kts | 41° |
| 2026-04-15 23:40 | 36.23586 | -115.03928 | 1879 ft | 15 kts | 41° |
| 2026-04-15 23:41 | 36.23670 | -115.03838 | 1879 ft | 17 kts | 41° |
| 2026-04-15 23:41 | 36.23762 | -115.03737 | 1879 ft | 19 kts | 41° |
| 2026-04-15 23:41 | 36.23863 | -115.03629 | 1879 ft | 20 kts | 41° |
| 2026-04-15 23:41 | 36.23968 | -115.03513 | 1878 ft | 20 kts | 42° |
| 2026-04-15 23:42 | 36.24078 | -115.03398 | 1879 ft | 21 kts | 42° |
| 2026-04-15 23:42 | 36.24187 | -115.03278 | 1879 ft | 21 kts | 38° |
| 2026-04-15 23:42 | 36.24291 | -115.03168 | 1879 ft | 17 kts | 35° |
| 2026-04-15 23:42 | 36.24382 | -115.03142 | 1880 ft | 12 kts | 2° |
| 2026-04-15 23:43 | 36.24461 | -115.03139 | 1880 ft | 11 kts | 1° |
| 2026-04-15 23:43 | 36.24531 | -115.03136 | 1880 ft | 10 kts | 7° |
| 2026-04-15 23:43 | 36.24560 | -115.03077 | 1880 ft | 8 kts | 88° |
| 2026-04-15 23:43 | 36.24559 | -115.03013 | 1880 ft | 7 kts | 91° |
| 2026-04-15 23:44 | 36.24557 | -115.02927 | 1879 ft | 12 kts | 92° |
| 2026-04-15 23:44 | 36.24554 | -115.02810 | 1877 ft | 15 kts | 92° |
| 2026-04-15 23:44 | 36.24531 | -115.02708 | 1873 ft | 9 kts | 136° |
| 2026-04-15 23:44 | 36.24483 | -115.02717 | 1874 ft | 16 kts | 217° |
| 2026-04-15 23:45 | 36.24217 | -115.03003 | 1876 ft | 89 kts | 221° |
| 2026-04-15 23:45 | 36.23618 | -115.03663 | 2009 ft | 131 kts | 220° |
| 2026-04-15 23:45 | 36.22947 | -115.04526 | 2364 ft | 149 kts | 225° |
| 2026-04-15 23:45 | 36.22211 | -115.05531 | 2765 ft | 166 kts | 229° |
| 2026-04-15 23:46 | 36.21371 | -115.06677 | 3075 ft | 189 kts | 227° |
| 2026-04-15 23:46 | 36.20492 | -115.07933 | 3456 ft | 201 kts | 230° |
| 2026-04-15 23:46 | 36.19613 | -115.09263 | 4124 ft | 196 kts | 231° |
| 2026-04-15 23:46 | 36.19070 | -115.10742 | 4931 ft | 191 kts | 255° |
| 2026-04-15 23:47 | 36.18872 | -115.12368 | 5613 ft | 192 kts | 261° |
| 2026-04-15 23:47 | 36.18737 | -115.14009 | 6316 ft | 190 kts | 261° |
| 2026-04-15 23:47 | 36.18624 | -115.15649 | 6890 ft | 193 kts | 262° |
| 2026-04-15 23:47 | 36.18513 | -115.17306 | 7503 ft | 194 kts | 262° |
| 2026-04-15 23:48 | 36.18389 | -115.18990 | 8072 ft | 197 kts | 258° |
| 2026-04-15 23:48 | 36.17808 | -115.20463 | 8654 ft | 192 kts | 220° |
| 2026-04-15 23:48 | 36.16581 | -115.21116 | 9189 ft | 195 kts | 193° |
| 2026-04-15 23:48 | 36.15230 | -115.21332 | 9788 ft | 197 kts | 182° |
| 2026-04-15 23:49 | 36.13856 | -115.21287 | 10352 ft | 197 kts | 179° |
| 2026-04-15 23:49 | 36.12468 | -115.21167 | 10843 ft | 203 kts | 178° |
| 2026-04-15 23:49 | 36.11048 | -115.21019 | 11300 ft | 208 kts | 178° |
| 2026-04-15 23:49 | 36.09590 | -115.20850 | 11774 ft | 211 kts | 179° |
| 2026-04-15 23:50 | 36.08117 | -115.20670 | 12250 ft | 214 kts | 178° |
| 2026-04-15 23:50 | 36.06627 | -115.20481 | 12755 ft | 217 kts | 178° |
| 2026-04-15 23:50 | 36.05120 | -115.20284 | 13227 ft | 219 kts | 178° |
| 2026-04-15 23:51 | 36.02041 | -115.19874 | 14118 ft | 225 kts | 178° |
| 2026-04-15 23:51 | 36.00474 | -115.19662 | 14541 ft | 226 kts | 178° |
| 2026-04-15 23:51 | 35.98903 | -115.19449 | 14944 ft | 228 kts | 178° |
| 2026-04-15 23:51 | 35.97317 | -115.19234 | 15343 ft | 230 kts | 177° |
| 2026-04-15 23:52 | 35.95721 | -115.19017 | 15738 ft | 232 kts | 178° |
| 2026-04-15 23:52 | 35.94108 | -115.18798 | 16126 ft | 233 kts | 178° |
| 2026-04-15 23:52 | 35.92510 | -115.18580 | 16501 ft | 235 kts | 178° |
| 2026-04-15 23:52 | 35.90883 | -115.18360 | 16882 ft | 236 kts | 178° |
| 2026-04-15 23:53 | 35.89240 | -115.18137 | 17233 ft | 239 kts | 178° |
| 2026-04-15 23:53 | 35.87583 | -115.17913 | 17588 ft | 241 kts | 177° |
| 2026-04-15 23:53 | 35.85916 | -115.17687 | 17943 ft | 242 kts | 178° |
| 2026-04-15 23:53 | 35.84241 | -115.17461 | 18285 ft | 243 kts | 178° |
| 2026-04-15 23:54 | 35.82554 | -115.17233 | 18562 ft | 245 kts | 178° |
| 2026-04-15 23:54 | 35.80855 | -115.17004 | 18864 ft | 246 kts | 178° |
| 2026-04-15 23:54 | 35.79145 | -115.16801 | 19157 ft | 246 kts | 184° |
| 2026-04-15 23:54 | 35.77502 | -115.17196 | 19418 ft | 239 kts | 210° |
| 2026-04-15 23:55 | 35.76191 | -115.18409 | 19695 ft | 235 kts | 227° |
| 2026-04-15 23:55 | 35.75041 | -115.19858 | 19935 ft | 239 kts | 229° |
| 2026-04-15 23:55 | 35.73878 | -115.21379 | 19998 ft | 249 kts | 230° |
| 2026-04-15 23:55 | 35.72674 | -115.22976 | 20010 ft | 260 kts | 230° |
| 2026-04-15 23:56 | 35.71425 | -115.24643 | 20004 ft | 270 kts | 230° |
| 2026-04-15 23:56 | 35.70131 | -115.26378 | 20003 ft | 279 kts | 230° |
| 2026-04-15 23:56 | 35.68806 | -115.28160 | 20003 ft | 285 kts | 230° |
| 2026-04-15 23:56 | 35.67458 | -115.29974 | 20011 ft | 290 kts | 230° |
| 2026-04-15 23:57 | 35.66089 | -115.31819 | 20009 ft | 292 kts | 230° |
| 2026-04-15 23:57 | 35.64724 | -115.33656 | 20002 ft | 290 kts | 230° |
| 2026-04-15 23:57 | 35.63366 | -115.35485 | 20006 ft | 291 kts | 230° |
| 2026-04-15 23:57 | 35.61999 | -115.37326 | 20006 ft | 291 kts | 230° |
| 2026-04-15 23:58 | 35.60639 | -115.39156 | 20006 ft | 290 kts | 230° |
| 2026-04-15 23:58 | 35.59277 | -115.40989 | 20018 ft | 292 kts | 230° |
| 2026-04-15 23:58 | 35.57913 | -115.42823 | 20019 ft | 290 kts | 230° |
| 2026-04-15 23:58 | 35.56549 | -115.44656 | 20021 ft | 290 kts | 230° |
| 2026-04-15 23:59 | 35.55201 | -115.46466 | 20020 ft | 291 kts | 230° |
| 2026-04-15 23:59 | 35.53837 | -115.48297 | 20020 ft | 290 kts | 230° |
| 2026-04-15 23:59 | 35.52473 | -115.50128 | 20020 ft | 291 kts | 230° |
| 2026-04-15 23:59 | 35.51107 | -115.51960 | 20019 ft | 291 kts | 230° |
| 2026-04-16 00:00 | 35.49744 | -115.53786 | 20018 ft | 290 kts | 230° |
| 2026-04-16 00:00 | 35.48376 | -115.55618 | 20019 ft | 291 kts | 230° |
| 2026-04-16 00:00 | 35.47009 | -115.57449 | 20020 ft | 291 kts | 230° |
| 2026-04-16 00:00 | 35.45644 | -115.59274 | 20023 ft | 290 kts | 230° |
| 2026-04-16 00:01 | 35.44279 | -115.61100 | 20020 ft | 291 kts | 230° |
| 2026-04-16 00:01 | 35.42913 | -115.62926 | 20024 ft | 290 kts | 230° |
| 2026-04-16 00:01 | 35.41548 | -115.64749 | 20016 ft | 290 kts | 230° |
| 2026-04-16 00:01 | 35.40185 | -115.66569 | 20018 ft | 288 kts | 230° |
| 2026-04-16 00:02 | 35.38835 | -115.68369 | 20018 ft | 287 kts | 230° |
| 2026-04-16 00:02 | 35.37483 | -115.70173 | 20017 ft | 288 kts | 230° |
| 2026-04-16 00:02 | 35.36120 | -115.71990 | 20016 ft | 289 kts | 230° |
| 2026-04-16 00:02 | 35.34763 | -115.73796 | 20016 ft | 288 kts | 230° |
| 2026-04-16 00:03 | 35.33405 | -115.75604 | 20017 ft | 289 kts | 230° |
| 2026-04-16 00:03 | 35.32045 | -115.77414 | 20008 ft | 288 kts | 230° |
| 2026-04-16 00:03 | 35.30693 | -115.79212 | 20002 ft | 288 kts | 230° |
| 2026-04-16 00:03 | 35.29325 | -115.81031 | 20006 ft | 291 kts | 230° |
| 2026-04-16 00:04 | 35.27961 | -115.82843 | 20007 ft | 289 kts | 230° |
| 2026-04-16 00:04 | 35.26598 | -115.84651 | 20005 ft | 289 kts | 230° |
| 2026-04-16 00:04 | 35.25232 | -115.86465 | 20005 ft | 290 kts | 230° |
| 2026-04-16 00:04 | 35.23869 | -115.88272 | 20003 ft | 288 kts | 230° |
| 2026-04-16 00:05 | 35.22507 | -115.90077 | 19990 ft | 290 kts | 230° |
| 2026-04-16 00:05 | 35.21136 | -115.91894 | 19989 ft | 290 kts | 230° |
| 2026-04-16 00:05 | 35.19773 | -115.93697 | 19988 ft | 288 kts | 230° |
| 2026-04-16 00:05 | 35.18411 | -115.95501 | 19992 ft | 291 kts | 229° |
| 2026-04-16 00:06 | 35.17055 | -115.97294 | 19988 ft | 290 kts | 229° |
| 2026-04-16 00:06 | 35.15686 | -115.99104 | 19987 ft | 290 kts | 229° |
| 2026-04-16 00:06 | 35.14316 | -116.00915 | 19988 ft | 290 kts | 229° |
| 2026-04-16 00:06 | 35.12949 | -116.02720 | 19971 ft | 290 kts | 229° |
| 2026-04-16 00:07 | 35.11575 | -116.04534 | 19971 ft | 290 kts | 229° |
| 2026-04-16 00:07 | 35.10204 | -116.06342 | 19972 ft | 290 kts | 229° |
| 2026-04-16 00:07 | 35.08837 | -116.08145 | 19972 ft | 290 kts | 229° |
| 2026-04-16 00:07 | 35.07464 | -116.09953 | 19972 ft | 290 kts | 229° |
| 2026-04-16 00:08 | 35.06092 | -116.11760 | 19969 ft | 290 kts | 229° |
| 2026-04-16 00:08 | 35.04719 | -116.13567 | 19966 ft | 290 kts | 229° |
| 2026-04-16 00:08 | 35.03346 | -116.15373 | 19958 ft | 290 kts | 229° |
| 2026-04-16 00:08 | 35.01976 | -116.17175 | 19959 ft | 290 kts | 229° |
| 2026-04-16 00:09 | 35.01048 | -116.18394 | 19954 ft | 290 kts | 229° |
| 2026-04-16 00:09 | 34.99691 | -116.20176 | 19954 ft | 290 kts | 229° |
| 2026-04-16 00:09 | 34.98319 | -116.21977 | 19954 ft | 290 kts | 229° |
| 2026-04-16 00:09 | 34.96943 | -116.23783 | 19953 ft | 291 kts | 229° |
| 2026-04-16 00:10 | 34.95566 | -116.25590 | 19958 ft | 292 kts | 229° |
| 2026-04-16 00:10 | 34.94184 | -116.27400 | 19950 ft | 290 kts | 229° |
| 2026-04-16 00:10 | 34.92810 | -116.29201 | 19951 ft | 290 kts | 229° |
| 2026-04-16 00:10 | 34.91439 | -116.30996 | 19952 ft | 289 kts | 229° |
| 2026-04-16 00:11 | 34.90067 | -116.32792 | 19948 ft | 290 kts | 229° |
| 2026-04-16 00:11 | 34.88690 | -116.34593 | 19952 ft | 290 kts | 229° |
| 2026-04-16 00:11 | 34.87317 | -116.36387 | 19950 ft | 290 kts | 229° |
| 2026-04-16 00:11 | 34.85941 | -116.38186 | 19949 ft | 290 kts | 229° |
| 2026-04-16 00:12 | 34.84564 | -116.39984 | 19952 ft | 290 kts | 229° |
| 2026-04-16 00:12 | 34.83187 | -116.41781 | 19950 ft | 290 kts | 229° |
| 2026-04-16 00:12 | 34.81810 | -116.43577 | 19952 ft | 290 kts | 229° |
| 2026-04-16 00:12 | 34.80449 | -116.45352 | 19953 ft | 290 kts | 229° |
| 2026-04-16 00:13 | 34.79071 | -116.47138 | 19951 ft | 290 kts | 228° |
| 2026-04-16 00:13 | 34.77674 | -116.48911 | 19956 ft | 290 kts | 228° |
| 2026-04-16 00:13 | 34.76283 | -116.50690 | 19959 ft | 290 kts | 229° |
| 2026-04-16 00:13 | 34.74896 | -116.52476 | 19958 ft | 290 kts | 229° |
| 2026-04-16 00:14 | 34.73514 | -116.54260 | 19958 ft | 290 kts | 229° |
| 2026-04-16 00:14 | 34.72137 | -116.56041 | 19960 ft | 290 kts | 229° |
| 2026-04-16 00:14 | 34.70753 | -116.57832 | 19959 ft | 290 kts | 229° |
| 2026-04-16 00:14 | 34.69374 | -116.59617 | 19960 ft | 290 kts | 229° |
| 2026-04-16 00:15 | 34.67991 | -116.61406 | 19961 ft | 290 kts | 229° |
| 2026-04-16 00:15 | 34.66612 | -116.63190 | 19958 ft | 290 kts | 229° |
| 2026-04-16 00:15 | 34.65231 | -116.64975 | 19964 ft | 290 kts | 229° |
| 2026-04-16 00:15 | 34.63847 | -116.66764 | 19959 ft | 291 kts | 229° |
| 2026-04-16 00:16 | 34.62465 | -116.68548 | 19964 ft | 290 kts | 229° |
| 2026-04-16 00:16 | 34.61070 | -116.70349 | 19966 ft | 296 kts | 229° |
| 2026-04-16 00:16 | 34.59647 | -116.72185 | 19960 ft | 302 kts | 229° |
| 2026-04-16 00:16 | 34.58196 | -116.74055 | 19963 ft | 306 kts | 229° |
| 2026-04-16 00:17 | 34.56726 | -116.75949 | 19970 ft | 310 kts | 229° |
| 2026-04-16 00:17 | 34.55257 | -116.77839 | 19971 ft | 313 kts | 228° |
| 2026-04-16 00:17 | 34.53755 | -116.79772 | 19970 ft | 316 kts | 229° |
| 2026-04-16 00:17 | 34.52242 | -116.81717 | 19973 ft | 318 kts | 228° |
| 2026-04-16 00:18 | 34.50702 | -116.83696 | 19978 ft | 320 kts | 228° |
| 2026-04-16 00:18 | 34.49189 | -116.85640 | 19980 ft | 321 kts | 228° |
| 2026-04-16 00:18 | 34.47651 | -116.87612 | 19995 ft | 322 kts | 229° |
| 2026-04-16 00:18 | 34.46112 | -116.89586 | 19993 ft | 323 kts | 229° |
| 2026-04-16 00:19 | 34.44569 | -116.91564 | 19996 ft | 323 kts | 229° |
| 2026-04-16 00:19 | 34.43024 | -116.93543 | 19995 ft | 323 kts | 229° |
| 2026-04-16 00:19 | 34.41481 | -116.95519 | 19991 ft | 323 kts | 229° |
| 2026-04-16 00:19 | 34.39932 | -116.97500 | 19994 ft | 324 kts | 229° |
| 2026-04-16 00:20 | 34.38382 | -116.99484 | 20012 ft | 324 kts | 229° |
| 2026-04-16 00:20 | 34.36834 | -117.01461 | 20005 ft | 324 kts | 229° |
| 2026-04-16 00:20 | 34.35287 | -117.03437 | 20015 ft | 324 kts | 229° |
| 2026-04-16 00:20 | 34.33736 | -117.05417 | 20006 ft | 325 kts | 229° |
| 2026-04-16 00:21 | 34.32177 | -117.07405 | 20004 ft | 325 kts | 229° |
| 2026-04-16 00:21 | 34.30624 | -117.09386 | 20002 ft | 325 kts | 228° |
| 2026-04-16 00:21 | 34.29064 | -117.11373 | 20008 ft | 325 kts | 228° |
| 2026-04-16 00:21 | 34.27505 | -117.13358 | 20007 ft | 325 kts | 229° |
| 2026-04-16 00:22 | 34.25948 | -117.15340 | 20004 ft | 325 kts | 228° |
| 2026-04-16 00:22 | 34.24390 | -117.17321 | 20009 ft | 325 kts | 229° |
| 2026-04-16 00:22 | 34.22835 | -117.19298 | 20033 ft | 325 kts | 229° |
| 2026-04-16 00:22 | 34.21273 | -117.21281 | 20033 ft | 325 kts | 228° |
| 2026-04-16 00:23 | 34.19712 | -117.23263 | 20038 ft | 326 kts | 228° |
| 2026-04-16 00:23 | 34.18152 | -117.25243 | 20036 ft | 326 kts | 228° |
| 2026-04-16 00:23 | 34.16585 | -117.27231 | 20035 ft | 326 kts | 229° |
| 2026-04-16 00:23 | 34.15040 | -117.29188 | 20035 ft | 326 kts | 228° |
| 2026-04-16 00:24 | 34.13455 | -117.31197 | 20036 ft | 326 kts | 228° |
| 2026-04-16 00:24 | 34.11887 | -117.33181 | 20035 ft | 326 kts | 228° |
| 2026-04-16 00:24 | 34.10342 | -117.35136 | 20034 ft | 326 kts | 228° |
| 2026-04-16 00:24 | 34.08775 | -117.37116 | 20034 ft | 326 kts | 228° |
| 2026-04-16 00:25 | 34.07209 | -117.39095 | 20031 ft | 326 kts | 228° |
| 2026-04-16 00:25 | 34.05642 | -117.41075 | 20033 ft | 326 kts | 228° |
| 2026-04-16 00:25 | 34.04073 | -117.43054 | 20038 ft | 326 kts | 228° |
| 2026-04-16 00:25 | 34.02508 | -117.45030 | 20039 ft | 326 kts | 228° |
| 2026-04-16 00:26 | 34.00943 | -117.47001 | 20039 ft | 326 kts | 228° |
| 2026-04-16 00:26 | 33.99375 | -117.48977 | 20037 ft | 326 kts | 229° |
| 2026-04-16 00:26 | 33.97805 | -117.50953 | 20025 ft | 326 kts | 229° |
| 2026-04-16 00:26 | 33.96235 | -117.52929 | 20032 ft | 326 kts | 229° |
| 2026-04-16 00:27 | 33.94664 | -117.54905 | 20035 ft | 326 kts | 229° |
| 2026-04-16 00:27 | 33.93094 | -117.56878 | 20037 ft | 326 kts | 229° |
| 2026-04-16 00:27 | 33.91523 | -117.58852 | 20035 ft | 327 kts | 229° |
| 2026-04-16 00:27 | 33.89948 | -117.60829 | 20034 ft | 327 kts | 229° |
| 2026-04-16 00:28 | 33.88374 | -117.62804 | 20037 ft | 327 kts | 228° |
| 2026-04-16 00:28 | 33.86801 | -117.64777 | 20032 ft | 327 kts | 228° |
| 2026-04-16 00:28 | 33.85223 | -117.66753 | 20036 ft | 327 kts | 228° |
| 2026-04-16 00:28 | 33.83647 | -117.68727 | 20037 ft | 327 kts | 228° |
| 2026-04-16 00:29 | 33.82088 | -117.70679 | 20035 ft | 328 kts | 228° |
| 2026-04-16 00:29 | 33.80507 | -117.72657 | 20036 ft | 328 kts | 228° |
| 2026-04-16 00:29 | 33.78925 | -117.74635 | 20040 ft | 328 kts | 228° |
| 2026-04-16 00:29 | 33.77343 | -117.76613 | 19953 ft | 331 kts | 228° |
| 2026-04-16 00:30 | 33.75723 | -117.78638 | 19532 ft | 338 kts | 228° |
| 2026-04-16 00:30 | 33.74095 | -117.80668 | 19179 ft | 335 kts | 228° |
| 2026-04-16 00:30 | 33.72477 | -117.82687 | 18821 ft | 338 kts | 228° |
| 2026-04-16 00:30 | 33.70836 | -117.84732 | 18474 ft | 340 kts | 228° |
| 2026-04-16 00:31 | 33.69204 | -117.86765 | 18108 ft | 337 kts | 228° |
| 2026-04-16 00:31 | 33.67587 | -117.88778 | 17702 ft | 334 kts | 228° |
| 2026-04-16 00:31 | 33.65965 | -117.90797 | 17325 ft | 338 kts | 227° |
| 2026-04-16 00:31 | 33.64315 | -117.92851 | 16920 ft | 345 kts | 227° |
| 2026-04-16 00:32 | 33.62651 | -117.94919 | 16485 ft | 342 kts | 227° |
| 2026-04-16 00:32 | 33.61006 | -117.96961 | 16060 ft | 339 kts | 227° |
| 2026-04-16 00:32 | 33.59374 | -117.98988 | 15647 ft | 337 kts | 227° |
| 2026-04-16 00:32 | 33.57748 | -118.01006 | 15242 ft | 335 kts | 227° |
| 2026-04-16 00:33 | 33.56139 | -118.03001 | 14849 ft | 333 kts | 227° |
| 2026-04-16 00:33 | 33.54530 | -118.04995 | 14458 ft | 331 kts | 227° |
| 2026-04-16 00:33 | 33.52999 | -118.07029 | 14074 ft | 327 kts | 232° |
| 2026-04-16 00:33 | 33.51633 | -118.09204 | 13681 ft | 327 kts | 235° |
| 2026-04-16 00:34 | 33.50328 | -118.11419 | 13252 ft | 322 kts | 236° |
| 2026-04-16 00:34 | 33.49058 | -118.13611 | 12847 ft | 321 kts | 236° |
| 2026-04-16 00:34 | 33.47795 | -118.15814 | 12447 ft | 320 kts | 236° |
| 2026-04-16 00:34 | 33.46546 | -118.18003 | 12052 ft | 314 kts | 236° |
| 2026-04-16 00:35 | 33.45328 | -118.20143 | 11668 ft | 316 kts | 236° |
| 2026-04-16 00:35 | 33.44095 | -118.22315 | 11277 ft | 313 kts | 236° |
| 2026-04-16 00:35 | 33.42871 | -118.24467 | 10909 ft | 312 kts | 235° |
| 2026-04-16 00:35 | 33.41651 | -118.26607 | 10539 ft | 313 kts | 235° |
| 2026-04-16 00:36 | 33.40433 | -118.28746 | 10184 ft | 309 kts | 235° |
| 2026-04-16 00:36 | 33.39234 | -118.30852 | 9813 ft | 307 kts | 235° |
| 2026-04-16 00:36 | 33.38018 | -118.32958 | 9404 ft | 307 kts | 231° |
| 2026-04-16 00:36 | 33.36443 | -118.34647 | 9007 ft | 302 kts | 216° |
| 2026-04-16 00:37 | 33.34659 | -118.35952 | 8591 ft | 303 kts | 204° |
| 2026-04-16 00:37 | 33.32698 | -118.36888 | 8217 ft | 301 kts | 201° |
| 2026-04-16 00:37 | 33.30741 | -118.37795 | 7868 ft | 302 kts | 201° |
| 2026-04-16 00:37 | 33.28784 | -118.38699 | 7503 ft | 302 kts | 201° |
| 2026-04-16 00:38 | 33.26840 | -118.39599 | 7146 ft | 298 kts | 201° |
| 2026-04-16 00:38 | 33.24901 | -118.40496 | 6804 ft | 299 kts | 201° |
| 2026-04-16 00:38 | 33.22966 | -118.41394 | 6396 ft | 298 kts | 201° |
| 2026-04-16 00:38 | 33.21044 | -118.42283 | 5970 ft | 295 kts | 201° |
| 2026-04-16 00:39 | 33.19132 | -118.43165 | 5544 ft | 293 kts | 201° |
| 2026-04-16 00:39 | 33.17235 | -118.44035 | 5121 ft | 291 kts | 201° |
| 2026-04-16 00:39 | 33.15350 | -118.44894 | 4631 ft | 289 kts | 201° |
| 2026-04-16 00:39 | 33.13477 | -118.45745 | 4151 ft | 286 kts | 201° |
| 2026-04-16 00:40 | 33.11619 | -118.46575 | 3664 ft | 284 kts | 202° |
| 2026-04-16 00:40 | 33.09771 | -118.47397 | 3207 ft | 282 kts | 202° |
| 2026-04-16 00:40 | 33.07965 | -118.48191 | 2716 ft | 269 kts | 202° |
| 2026-04-16 00:40 | 33.06248 | -118.48921 | 2212 ft | 256 kts | 202° |
| 2026-04-16 00:41 | 33.04759 | -118.49916 | 1759 ft | 236 kts | 230° |
| 2026-04-16 00:41 | 33.04208 | -118.51517 | 1756 ft | 202 kts | 276° |
| 2026-04-16 00:41 | 33.04877 | -118.52830 | 1704 ft | 177 kts | 317° |
| 2026-04-16 00:41 | 33.05667 | -118.53768 | 1608 ft | 149 kts | 294° |
| 2026-04-16 00:42 | 33.05513 | -118.54827 | 1188 ft | 137 kts | 223° |
| 2026-04-16 00:42 | 33.04610 | -118.55170 | 937 ft | 135 kts | 201° |
| 2026-04-16 00:42 | 33.03718 | -118.55483 | 661 ft | 132 kts | 206° |
| 2026-04-16 00:42 | 33.03170 | -118.56186 | 503 ft | 116 kts | 252° |
| 2026-04-16 00:43 | 33.02889 | -118.57077 | 238 ft | 111 kts | 249° |
| 2026-04-16 00:43 | 33.02609 | -118.57896 | 128 ft | 102 kts | 249° |
| 2026-04-16 00:43 | 33.02367 | -118.58590 | 116 ft | 67 kts | 246° |
| 2026-04-16 00:43 | 33.02235 | -118.58961 | 117 ft | 36 kts | 248° |
| 2026-04-16 00:44 | 33.02156 | -118.59197 | 118 ft | 26 kts | 245° |
| 2026-04-16 00:44 | 33.02089 | -118.59377 | 118 ft | 24 kts | 247° |
| 2026-04-16 00:44 | 33.02024 | -118.59564 | 117 ft | 25 kts | 246° |
| 2026-04-16 00:44 | 33.01919 | -118.59600 | 118 ft | 11 kts | 158° |
| 2026-04-16 00:45 | 33.01880 | -118.59556 | 118 ft | 7 kts | 95° |
| 2026-04-16 00:45 | 33.01897 | -118.59498 | 115 ft | 7 kts | 67° |
| 2026-04-16 00:45 | 33.01918 | -118.59438 | 116 ft | 9 kts | 67° |
| 2026-04-16 00:45 | 33.01947 | -118.59356 | 118 ft | 13 kts | 67° |
| 2026-04-16 00:46 | 33.01986 | -118.59243 | 114 ft | 17 kts | 66° |
| 2026-04-16 00:46 | 33.02035 | -118.59105 | 117 ft | 19 kts | 67° |
| 2026-04-16 00:46 | 33.02090 | -118.58949 | 117 ft | 20 kts | 68° |
| 2026-04-16 00:46 | 33.02136 | -118.58818 | 117 ft | 17 kts | 67° |
| 2026-04-16 00:47 | 33.02187 | -118.58673 | 114 ft | 20 kts | 68° |
| 2026-04-16 00:47 | 33.02215 | -118.58536 | 117 ft | 14 kts | 117° |
| 2026-04-16 00:47 | 33.02142 | -118.58488 | 117 ft | 12 kts | 157° |
| 2026-04-16 00:47 | 33.02058 | -118.58447 | 117 ft | 11 kts | 160° |
| 2026-04-16 00:48 | 33.02012 | -118.58467 | 116 ft | 5 kts | 233° |
| 2026-04-16 00:48 | 33.02007 | -118.58478 | 116 ft | 0 kts | 243° |